Time;durP1;ratioP1;P1;durP2;ratioP2;P2;SDS_P1;SDS_P2;PMS_P1;PMS_P2;Temp;Humidity;BMP_temperature;BMP_pressure;BME280_temperature;BME280_humidity;BME280_pressure;Samples;Min_cycle;Max_cycle;Signal;HPM_P1;HPM_P2
2024/01/18 00:02:23;;;;;;;26.27;8.83;;;;;;;-0.23;100.00;98540.94;5090439;28;20273;-68
2024/01/18 00:04:48;;;;;;;18.97;7.87;;;;;;;-0.22;100.00;98536.66;5091698;28;20122;-68
2024/01/18 00:07:14;;;;;;;21.37;9.03;;;;;;;-0.26;100.00;98535.63;5082840;28;20123;-67
2024/01/18 00:09:39;;;;;;;18.90;7.60;;;;;;;-0.27;100.00;98536.44;5083246;28;20302;-68
2024/01/18 00:12:05;;;;;;;19.27;8.20;;;;;;;-0.29;100.00;98539.75;5087816;28;20103;-68
2024/01/18 00:14:31;;;;;;;21.83;8.57;;;;;;;-0.32;100.00;98544.81;5092374;28;20051;-68
2024/01/18 00:16:56;;;;;;;21.40;8.40;;;;;;;-0.34;100.00;98556.81;5091213;28;20097;-69
2024/01/18 00:19:21;;;;;;;21.40;8.33;;;;;;;-0.36;100.00;98553.28;5091785;28;20131;-67
2024/01/18 00:21:47;;;;;;;22.33;9.97;;;;;;;-0.38;100.00;98550.59;5092811;28;20032;-68
2024/01/18 00:24:12;;;;;;;23.07;8.37;;;;;;;-0.40;100.00;98562.63;5079609;28;20123;-68
2024/01/18 00:26:37;;;;;;;22.40;9.57;;;;;;;-0.39;100.00;98574.75;5079503;28;20353;-65
2024/01/18 00:29:03;;;;;;;23.10;8.77;;;;;;;-0.38;100.00;98580.81;5079441;28;20093;-66
2024/01/18 00:31:28;;;;;;;19.83;8.53;;;;;;;-0.41;100.00;98585.88;5082277;28;20059;-65
2024/01/18 00:33:57;;;;;;;23.37;8.20;;;;;;;-0.41;100.00;98585.88;5083692;28;20119;-65
2024/01/18 00:36:24;;;;;;;21.50;8.98;;;;;;;-0.43;100.00;98597.03;5080965;28;20051;-66
2024/01/18 00:39:18;;;;;;;22.60;9.57;;;;;;;-0.45;100.00;98595.22;5086181;28;20039;-66
2024/01/18 00:41:39;;;;;;;22.70;8.90;;;;;;;-0.48;100.00;98611.47;5079620;28;20032;-67
2024/01/18 00:44:04;;;;;;;18.63;8.60;;;;;;;-0.48;100.00;98616.66;5079620;28;20112;-65
2024/01/18 00:46:30;;;;;;;18.60;8.40;;;;;;;-0.48;100.00;98624.44;5081547;28;20055;-65
2024/01/18 00:48:55;;;;;;;21.27;9.03;;;;;;;-0.47;100.00;98627.94;5074473;28;20075;-67
2024/01/18 00:51:21;;;;;;;20.05;8.75;;;;;;;-0.47;100.00;98633.13;5066212;28;20040;-65
2024/01/18 00:53:46;;;;;;;22.93;8.37;;;;;;;-0.49;100.00;98633.03;5075812;28;20032;-65
2024/01/18 00:56:12;;;;;;;19.53;8.13;;;;;;;-0.46;100.00;98640.09;5068024;28;20151;-66
2024/01/18 00:58:38;;;;;;;20.00;8.52;;;;;;;-0.46;100.00;98645.28;5085774;28;20032;-65
2024/01/18 01:01:04;;;;;;;22.60;8.67;;;;;;;-0.45;100.00;98637.59;5072294;28;20036;-67
2024/01/18 01:03:29;;;;;;;21.08;8.82;;;;;;;-0.45;100.00;98647.97;5087725;28;21552;-66
2024/01/18 01:05:54;;;;;;;20.90;7.80;;;;;;;-0.43;100.00;98651.50;5081853;28;20064;-67
2024/01/18 01:10:37;;;;;;;22.67;8.65;;;;;;;-0.46;100.00;98656.53;4999327;28;20470;-66
2024/01/18 01:13:03;;;;;;;24.90;8.37;;;;;;;-0.45;99.96;98666.09;4978797;28;20719;-67
2024/01/18 01:15:28;;;;;;;19.90;8.23;;;;;;;-0.44;99.94;98672.16;4977756;28;20066;-67
2024/01/18 01:17:53;;;;;;;19.53;7.43;;;;;;;-0.43;99.74;98661.88;4978755;28;20061;-69
2024/01/18 01:20:19;;;;;;;21.70;8.27;;;;;;;-0.42;99.64;98673.13;4978134;28;20060;-67
2024/01/18 01:22:45;;;;;;;19.45;7.50;;;;;;;-0.46;99.27;98666.91;4984626;28;20062;-69
2024/01/18 01:25:10;;;;;;;18.20;8.27;;;;;;;-0.46;99.56;98660.84;4978559;28;20064;-69
2024/01/18 01:27:35;;;;;;;16.60;7.37;;;;;;;-0.47;99.27;98667.72;4970273;28;20039;-67
2024/01/18 01:30:01;;;;;;;19.23;8.50;;;;;;;-0.46;99.30;98671.22;4977778;28;20352;-67
2024/01/18 01:32:27;;;;;;;22.83;8.88;;;;;;;-0.47;99.07;98665.13;4978136;28;20050;-69
2024/01/18 01:34:53;;;;;;;18.17;7.65;;;;;;;-0.47;98.58;98670.31;4977278;28;20474;-69
2024/01/18 01:37:18;;;;;;;18.23;7.87;;;;;;;-0.46;98.78;98671.22;4977307;28;20060;-68
2024/01/18 01:39:43;;;;;;;18.70;7.43;;;;;;;-0.45;98.29;98689.44;4977319;28;20168;-68
2024/01/18 01:42:09;;;;;;;20.10;8.17;;;;;;;-0.46;98.45;98704.91;4978369;28;20133;-68
2024/01/18 01:44:34;;;;;;;23.17;8.33;;;;;;;-0.48;98.18;98704.81;4977220;28;20046;-68
2024/01/18 01:46:59;;;;;;;18.77;8.63;;;;;;;-0.52;97.99;98705.47;4977605;28;20441;-69
2024/01/18 01:49:25;;;;;;;17.53;7.27;;;;;;;-0.52;97.75;98714.97;4976888;28;20034;-69
2024/01/18 01:51:51;;;;;;;20.10;7.87;;;;;;;-0.49;97.81;98717.69;4977434;28;20081;-71
2024/01/18 01:54:19;;;;;;;21.02;8.93;;;;;;;-0.48;97.55;98716.88;4977379;28;20049;-68
2024/01/18 01:56:46;;;;;;;21.65;8.02;;;;;;;-0.49;97.51;98709.91;4977554;28;20057;-69
2024/01/18 01:59:14;;;;;;;20.75;7.97;;;;;;;-0.48;97.32;98710.00;4976876;28;20042;-67
2024/01/18 02:01:41;;;;;;;18.43;9.00;;;;;;;-0.49;97.39;98713.41;4977792;28;20734;-66
2024/01/18 02:04:06;;;;;;;20.35;8.30;;;;;;;-0.47;97.03;98714.38;4977424;28;20039;-69
2024/01/18 02:06:34;;;;;;;22.07;8.30;;;;;;;-0.49;97.33;98710.81;4976630;28;20643;-67
2024/01/18 02:09:01;;;;;;;23.80;6.85;;;;;;;-0.49;97.00;98704.72;4978696;28;20043;-67
2024/01/18 02:11:27;;;;;;;20.27;7.93;;;;;;;-0.52;96.37;98718.44;4978161;28;20060;-67
2024/01/18 02:13:54;;;;;;;22.52;8.70;;;;;;;-0.51;96.33;98711.56;4976924;28;20100;-67
2024/01/18 02:16:19;;;;;;;20.55;8.45;;;;;;;-0.53;96.21;98708.88;4976708;28;20077;-67
2024/01/18 02:18:46;;;;;;;20.93;7.40;;;;;;;-0.52;96.54;98723.63;4977240;28;20545;-68
2024/01/18 02:21:12;;;;;;;19.60;9.30;;;;;;;-0.51;96.60;98728.00;4973781;28;20038;-67
2024/01/18 02:23:38;;;;;;;16.23;7.30;;;;;;;-0.51;96.56;98734.91;4964265;28;20043;-66
2024/01/18 02:26:03;;;;;;;20.92;9.20;;;;;;;-0.50;96.47;98735.00;4964559;28;20073;-67
2024/01/18 02:28:29;;;;;;;23.87;9.10;;;;;;;-0.51;96.10;98745.28;4963838;28;20216;-67
2024/01/18 02:30:54;;;;;;;20.67;8.47;;;;;;;-0.50;96.09;98741.88;4964242;28;20129;-66
2024/01/18 02:33:20;;;;;;;18.02;8.20;;;;;;;-0.50;96.23;98737.59;4963841;28;20376;-67
2024/01/18 02:35:46;;;;;;;19.37;8.63;;;;;;;-0.49;96.23;98739.34;4973930;28;20048;-66
2024/01/18 02:39:48;;;;;;;20.83;8.38;;;;;;;-0.48;96.10;98753.19;5101866;27;20764;-67
2024/01/18 02:42:13;;;;;;;20.98;8.43;;;;;;;-0.47;96.05;98745.50;5093409;27;20032;-66
2024/01/18 02:44:39;;;;;;;20.87;7.83;;;;;;;-0.48;96.03;98737.63;5091229;28;20134;-69
2024/01/18 02:47:04;;;;;;;19.00;7.73;;;;;;;-0.49;95.79;98743.63;5088719;28;20036;-67
2024/01/18 02:49:30;;;;;;;16.47;7.17;;;;;;;-0.53;95.28;98747.78;5110282;27;20044;-68
2024/01/18 02:54:26;;;;;;;21.85;8.57;;;;;;;-0.52;95.26;98761.63;5096392;27;20444;-67
2024/01/18 02:56:51;;;;;;;23.10;8.40;;;;;;;-0.52;95.37;98761.63;5080158;28;20032;-67
2024/01/18 02:59:17;;;;;;;23.30;6.90;;;;;;;-0.53;95.29;98760.72;5078731;28;20111;-69
2024/01/18 03:01:42;;;;;;;20.13;7.80;;;;;;;-0.53;95.12;98763.31;5080433;28;20054;-67
2024/01/18 03:04:07;;;;;;;16.77;7.03;;;;;;;-0.54;94.87;98761.53;5080564;28;20066;-67
2024/01/18 03:06:33;;;;;;;18.93;8.00;;;;;;;-0.54;94.78;98755.47;5081832;28;20119;-67
2024/01/18 03:08:58;;;;;;;18.30;8.27;;;;;;;-0.57;94.48;98756.22;5082343;28;20114;-67
2024/01/18 03:11:23;;;;;;;18.73;7.53;;;;;;;-0.59;94.53;98759.50;5089933;28;20119;-67
2024/01/18 03:13:49;;;;;;;19.57;6.80;;;;;;;-0.61;94.36;98763.75;5082689;28;20123;-67
2024/01/18 03:16:15;;;;;;;16.57;7.23;;;;;;;-0.61;94.17;98774.13;5081270;28;20093;-67
2024/01/18 03:18:43;;;;;;;23.00;8.75;;;;;;;-0.62;94.07;98769.72;5081929;28;20377;-67
2024/01/18 03:21:08;;;;;;;22.55;9.07;;;;;;;-0.64;94.18;98774.81;5087175;28;20051;-66
2024/01/18 03:23:34;;;;;;;18.07;7.77;;;;;;;-0.64;94.01;98789.53;5081903;28;20511;-71
2024/01/18 03:25:59;;;;;;;17.47;7.27;;;;;;;-0.63;93.81;98794.75;5080018;28;20040;-67
2024/01/18 03:28:24;;;;;;;17.20;7.53;;;;;;;-0.61;94.01;98792.25;5080273;28;20119;-67
2024/01/18 03:30:50;;;;;;;21.47;8.30;;;;;;;-0.60;93.97;98781.09;5080228;28;20044;-68
2024/01/18 03:33:16;;;;;;;23.65;8.65;;;;;;;-0.59;93.86;98785.44;5080699;28;20040;-68
2024/01/18 03:35:42;;;;;;;20.33;7.47;;;;;;;-0.59;93.95;98788.91;5095756;28;20040;-68
2024/01/18 03:38:08;;;;;;;21.97;8.57;;;;;;;-0.57;93.69;98789.00;5090471;28;20563;-67
2024/01/18 03:40:33;;;;;;;21.57;7.43;;;;;;;-0.56;93.31;98808.94;5080466;28;20051;-68
2024/01/18 03:42:59;;;;;;;20.00;8.00;;;;;;;-0.59;92.90;98811.34;5083339;28;20043;-67
2024/01/18 03:45:24;;;;;;;18.83;7.83;;;;;;;-0.58;93.03;98805.38;5080417;28;20040;-70
2024/01/18 03:47:50;;;;;;;20.57;8.43;;;;;;;-0.57;93.10;98818.44;5080740;28;20530;-67
2024/01/18 03:50:16;;;;;;;18.17;7.53;;;;;;;-0.61;92.75;98816.47;5080254;28;20078;-68
2024/01/18 03:52:41;;;;;;;18.47;8.20;;;;;;;-0.61;92.82;98820.78;5096586;28;20550;-69
2024/01/18 03:55:07;;;;;;;24.90;9.13;;;;;;;-0.65;92.71;98822.31;5066836;28;20036;-67
2024/01/18 03:57:32;;;;;;;19.50;7.77;;;;;;;-0.66;92.75;98827.41;5079277;28;20348;-67
2024/01/18 03:59:57;;;;;;;18.53;7.67;;;;;;;-0.69;92.51;98825.53;5079279;28;20040;-67
2024/01/18 04:02:23;;;;;;;22.17;8.00;;;;;;;-0.69;92.53;98832.44;5073183;28;20544;-66
2024/01/18 04:04:48;;;;;;;18.30;7.50;;;;;;;-0.68;92.64;98827.31;5067976;28;20051;-68
2024/01/18 04:07:15;;;;;;;17.35;7.53;;;;;;;-0.68;92.36;98832.50;5059486;28;20488;-65
2024/01/18 04:09:40;;;;;;;20.13;8.37;;;;;;;-0.71;92.48;98829.75;5070207;28;20048;-69
2024/01/18 04:12:06;;;;;;;19.30;8.48;;;;;;;-0.72;92.34;98843.53;5065257;28;20040;-67
2024/01/18 04:14:31;;;;;;;21.07;7.30;;;;;;;-0.71;91.99;98836.63;5064963;28;20041;-66
2024/01/18 04:16:57;;;;;;;17.48;7.00;;;;;;;-0.73;91.97;98852.09;5065564;28;20461;-69
2024/01/18 04:19:22;;;;;;;17.73;6.73;;;;;;;-0.73;91.93;98853.78;5065532;28;20045;-68
2024/01/18 04:21:48;;;;;;;24.93;8.40;;;;;;;-0.74;91.93;98860.69;5067665;28;20080;-66
2024/01/18 04:24:13;;;;;;;17.90;7.77;;;;;;;-0.75;92.35;98858.91;5065972;28;20039;-67
2024/01/18 04:26:39;;;;;;;21.20;7.60;;;;;;;-0.75;92.21;98863.22;5065516;28;20560;-66
2024/01/18 04:29:04;;;;;;;20.20;7.93;;;;;;;-0.78;92.11;98847.47;5067156;28;20275;-65
2024/01/18 04:31:33;;;;;;;19.88;8.38;;;;;;;-0.81;91.94;98858.56;5066498;28;20078;-66
2024/01/18 04:38:45;;;;;;;19.77;8.70;;;;;;;-0.83;92.06;98865.34;5097599;27;20399;-68
2024/01/18 04:41:11;;;;;;;18.37;7.67;;;;;;;-0.85;92.15;98868.69;5084312;28;20511;-66
2024/01/18 04:43:36;;;;;;;18.10;7.03;;;;;;;-0.88;92.12;98867.69;5079700;28;20287;-66
2024/01/18 04:46:04;;;;;;;20.47;7.77;;;;;;;-0.89;92.11;98873.69;5080723;28;20070;-66
2024/01/18 04:48:30;;;;;;;21.48;7.55;;;;;;;-0.89;92.01;98883.19;5083132;28;20044;-67
2024/01/18 04:50:55;;;;;;;22.23;9.05;;;;;;;-0.89;91.77;98875.41;5096237;28;20052;-66
2024/01/18 04:53:20;;;;;;;23.63;7.63;;;;;;;-0.90;92.03;98874.50;5086532;28;20038;-66
2024/01/18 04:55:46;;;;;;;18.63;8.33;;;;;;;-0.90;92.04;98874.50;5100488;28;20118;-64
2024/01/18 04:58:11;;;;;;;19.80;8.73;;;;;;;-0.92;91.98;98883.88;5080929;28;20040;-68
2024/01/18 05:00:37;;;;;;;23.80;9.43;;;;;;;-0.93;92.22;98873.44;5097086;28;20701;-65
2024/01/18 05:03:03;;;;;;;24.20;10.13;;;;;;;-0.95;92.31;98868.19;5087809;28;20130;-67
2024/01/18 05:05:29;;;;;;;22.00;9.38;;;;;;;-0.95;92.34;98875.06;5080727;28;20144;-66
2024/01/18 05:07:54;;;;;;;21.57;10.27;;;;;;;-0.94;92.61;98869.94;5082186;28;20124;-65
2024/01/18 05:10:19;;;;;;;20.77;9.70;;;;;;;-0.96;92.59;98878.44;5081780;28;20139;-66
2024/01/18 05:12:46;;;;;;;20.93;9.43;;;;;;;-0.98;92.69;98886.13;5087467;28;20036;-65
2024/01/18 05:15:12;;;;;;;20.42;9.18;;;;;;;-0.97;92.64;98889.63;5096883;28;20064;-67
2024/01/18 05:17:40;;;;;;;21.83;8.40;;;;;;;-0.97;92.99;98887.94;5082176;28;20086;-69
2024/01/18 05:20:06;;;;;;;18.25;7.30;;;;;;;-0.97;92.88;98880.16;5081519;28;20083;-65
2024/01/18 05:22:32;;;;;;;19.05;8.55;;;;;;;-0.99;92.81;98886.06;5096989;28;20127;-65
2024/01/18 05:24:59;;;;;;;23.83;9.53;;;;;;;-1.00;93.01;98884.28;5091094;28;20902;-66
2024/01/18 05:27:25;;;;;;;25.25;10.45;;;;;;;-1.01;93.04;98873.03;5082601;28;20031;-67
2024/01/18 05:29:51;;;;;;;24.90;8.45;;;;;;;-0.99;93.26;98871.38;5079607;28;20044;-67
2024/01/18 05:32:20;;;;;;;20.43;8.93;;;;;;;-0.98;93.05;98896.50;5079895;28;20113;-68
2024/01/18 05:34:45;;;;;;;20.05;8.57;;;;;;;-0.97;93.18;98918.13;5079861;28;20473;-66
2024/01/18 05:37:11;;;;;;;21.60;8.40;;;;;;;-1.00;93.04;98944.75;5079548;28;20040;-68
2024/01/18 05:39:36;;;;;;;19.30;8.53;;;;;;;-0.99;93.15;98936.16;5079613;28;20103;-65
2024/01/18 05:42:02;;;;;;;21.33;9.52;;;;;;;-0.97;93.26;98924.19;5084915;28;20360;-65
2024/01/18 05:44:28;;;;;;;24.43;8.90;;;;;;;-1.00;93.06;98933.50;5089512;28;20039;-67
2024/01/18 05:46:53;;;;;;;20.48;9.32;;;;;;;-1.03;93.41;98935.91;5085226;28;20043;-64
2024/01/18 05:49:19;;;;;;;22.93;8.93;;;;;;;-1.01;93.43;98942.06;5072859;27;20112;-64
2024/01/18 05:51:44;;;;;;;20.63;8.90;;;;;;;-1.01;93.64;98944.66;5070899;28;20040;-65
2024/01/18 05:54:10;;;;;;;21.57;8.87;;;;;;;-1.00;93.71;98962.00;5069581;28;20037;-66
2024/01/18 05:56:35;;;;;;;30.97;9.13;;;;;;;-1.01;93.73;98970.56;5065491;28;20039;-64
2024/01/18 05:59:00;;;;;;;22.33;8.20;;;;;;;-0.99;93.75;98977.59;5073403;28;20140;-65
2024/01/18 06:01:26;;;;;;;22.73;9.30;;;;;;;-0.97;93.58;98972.53;5076324;28;20032;-67
2024/01/18 06:03:51;;;;;;;26.98;9.48;;;;;;;-0.98;93.58;98976.81;5080743;28;20145;-69
2024/01/18 06:06:16;;;;;;;23.13;9.73;;;;;;;-0.98;93.66;98974.22;5086081;28;20139;-65
2024/01/18 06:08:42;;;;;;;20.30;9.40;;;;;;;-1.03;93.36;98977.34;5070620;28;20114;-65
2024/01/18 06:11:07;;;;;;;21.47;9.00;;;;;;;-1.07;93.84;98981.47;5070598;28;20040;-64
2024/01/18 06:13:33;;;;;;;22.42;10.10;;;;;;;-1.11;93.94;98979.50;5073918;28;20043;-66
2024/01/18 06:15:58;;;;;;;25.37;10.47;;;;;;;-1.12;94.26;98982.91;5065263;28;20111;-68
2024/01/18 06:18:24;;;;;;;24.77;10.27;;;;;;;-1.13;94.14;98978.50;5065342;28;20491;-65
2024/01/18 06:20:49;;;;;;;20.90;9.03;;;;;;;-1.14;94.21;98996.59;5068984;28;20032;-68
2024/01/18 06:23:14;;;;;;;21.10;9.27;;;;;;;-1.15;94.42;98998.28;5068789;28;20040;-65
2024/01/18 06:25:40;;;;;;;23.87;9.67;;;;;;;-1.11;94.42;99005.41;5077192;28;20048;-65
2024/01/18 06:28:05;;;;;;;20.43;9.07;;;;;;;-1.09;94.21;99010.69;5085905;28;20477;-70
2024/01/18 06:30:31;;;;;;;21.07;8.60;;;;;;;-1.06;94.36;99016.03;5065796;28;20048;-67
2024/01/18 06:32:56;;;;;;;20.63;8.27;;;;;;;-1.02;94.12;99013.72;5073471;28;20045;-68
2024/01/18 06:35:22;;;;;;;25.77;9.43;;;;;;;-1.00;94.11;99011.22;5072738;28;20127;-65
2024/01/18 06:37:48;;;;;;;20.57;9.03;;;;;;;-1.00;94.05;99012.13;5064692;28;20527;-67
2024/01/18 06:40:15;;;;;;;19.35;8.85;;;;;;;-0.97;93.86;99013.97;5072771;28;20044;-63
2024/01/18 06:42:40;;;;;;;23.80;9.95;;;;;;;-0.97;93.72;99006.22;5078706;28;20043;-65
2024/01/18 06:45:07;;;;;;;23.00;8.97;;;;;;;-0.99;93.83;99010.44;5080290;28;20036;-65
2024/01/18 06:47:33;;;;;;;27.55;9.65;;;;;;;-1.00;93.85;99016.41;5064924;28;20556;-67
2024/01/18 06:49:58;;;;;;;29.47;10.37;;;;;;;-0.99;93.66;99023.38;5067487;28;20055;-64
2024/01/18 06:52:24;;;;;;;21.70;9.07;;;;;;;-1.01;93.62;99025.88;5085955;28;20028;-65
2024/01/18 06:54:49;;;;;;;22.47;8.70;;;;;;;-1.02;93.63;99025.78;5073857;28;20028;-65
2024/01/18 06:57:14;;;;;;;22.13;9.67;;;;;;;-1.03;93.58;99037.84;5084052;28;20118;-65
2024/01/18 06:59:45;;;;;;;26.20;9.63;;;;;;;-1.05;93.50;99035.97;5075329;28;20040;-64
2024/01/18 07:02:10;;;;;;;22.98;9.20;;;;;;;-1.06;93.79;99037.66;5073726;28;20467;-68
2024/01/18 07:04:36;;;;;;;18.40;8.63;;;;;;;-1.07;93.69;99029.78;5067335;28;20514;-66
2024/01/18 07:07:01;;;;;;;21.67;9.10;;;;;;;-1.09;93.90;99034.91;5068930;28;20111;-66
2024/01/18 07:09:26;;;;;;;22.15;8.45;;;;;;;-1.11;93.80;99039.09;5082477;28;20752;-66
2024/01/18 07:11:52;;;;;;;20.20;8.73;;;;;;;-1.13;94.23;99048.44;5070504;28;20166;-66
2024/01/18 07:14:17;;;;;;;24.43;9.47;;;;;;;-1.13;94.24;99047.56;5080753;28;20054;-68
2024/01/18 07:16:42;;;;;;;24.90;9.57;;;;;;;-1.16;94.12;99034.44;5063521;28;20132;-66
2024/01/18 07:19:08;;;;;;;25.20;9.80;;;;;;;-1.17;94.34;99035.22;5063635;28;20127;-65
2024/01/18 07:21:33;;;;;;;17.95;8.13;;;;;;;-1.20;94.56;99033.38;5069925;28;20045;-66
2024/01/18 07:23:59;;;;;;;25.07;9.60;;;;;;;-1.19;94.52;99039.44;5072034;28;20047;-65
2024/01/18 07:26:25;;;;;;;22.23;9.40;;;;;;;-1.19;94.54;99040.34;5071620;28;20047;-66
2024/01/18 07:28:50;;;;;;;26.77;8.97;;;;;;;-1.16;94.36;99042.22;5068990;28;20134;-69
2024/01/18 07:31:16;;;;;;;23.63;9.80;;;;;;;-1.16;94.12;99050.88;5066583;28;20044;-66
2024/01/18 07:33:41;;;;;;;27.27;10.10;;;;;;;-1.15;94.50;99049.19;5064471;28;20040;-66
2024/01/18 07:36:06;;;;;;;23.40;9.57;;;;;;;-1.13;94.24;99044.97;5063521;28;20066;-64
2024/01/18 07:40:58;;;;;;;23.20;9.73;;;;;;;-1.14;94.82;99049.28;5080343;27;20360;-67
2024/01/18 07:43:24;;;;;;;27.23;9.97;;;;;;;-1.10;94.50;99055.53;5066766;28;20124;-66
2024/01/18 07:45:49;;;;;;;24.05;9.30;;;;;;;-1.08;94.67;99056.50;5060400;28;20036;-66
2024/01/18 07:48:14;;;;;;;24.37;10.23;;;;;;;-1.04;94.75;99056.78;5062520;28;20030;-68
2024/01/18 07:50:40;;;;;;;24.57;10.63;;;;;;;-1.03;94.75;99058.56;5062817;28;20532;-66
2024/01/18 07:53:06;;;;;;;25.63;11.50;;;;;;;-1.07;94.90;99042.75;5062282;28;20299;-69
2024/01/18 07:55:31;;;;;;;31.13;10.98;;;;;;;-1.06;95.06;99049.72;5059883;28;20530;-68
2024/01/18 07:57:57;;;;;;;33.77;11.10;;;;;;;-1.04;95.22;99042.94;5060747;28;20040;-66
2024/01/18 08:00:22;;;;;;;27.97;11.60;;;;;;;-1.02;95.31;99041.31;5059978;28;20119;-66
2024/01/18 08:02:47;;;;;;;23.67;10.23;;;;;;;-0.94;95.38;99047.84;5060092;28;20040;-66
2024/01/18 08:05:13;;;;;;;23.13;9.07;;;;;;;-0.86;95.53;99059.56;5059517;28;20108;-66
2024/01/18 08:07:38;;;;;;;29.20;11.17;;;;;;;-0.77;95.24;99060.09;5058555;28;20404;-66
2024/01/18 08:10:06;;;;;;;23.50;9.73;;;;;;;-0.69;95.39;99055.34;5060015;28;20286;-67
2024/01/18 08:12:31;;;;;;;28.95;10.98;;;;;;;-0.62;94.88;99058.38;5059434;28;20120;-66
2024/01/18 08:14:56;;;;;;;25.50;11.20;;;;;;;-0.57;94.72;99064.72;5059677;28;20679;-69
2024/01/18 08:17:22;;;;;;;27.90;11.43;;;;;;;-0.50;94.47;99065.97;5059652;28;20082;-67
2024/01/18 08:19:47;;;;;;;31.17;11.47;;;;;;;-0.43;94.45;99071.56;5059686;28;20505;-66
2024/01/18 08:22:14;;;;;;;28.03;10.93;;;;;;;-0.40;94.35;99080.34;5065885;28;20040;-68
2024/01/18 08:24:41;;;;;;;23.58;10.15;;;;;;;-0.36;93.79;99085.81;5059314;28;20042;-70
2024/01/18 08:27:07;;;;;;;25.42;11.02;;;;;;;-0.26;93.64;99084.63;5059350;28;20095;-68
2024/01/18 08:31:52;;;;;;;22.75;10.30;;;;;;;-0.10;93.24;99097.66;5100723;27;20867;-66
2024/01/18 08:34:17;;;;;;;26.37;10.70;;;;;;;-0.02;93.13;99098.97;5083234;28;20040;-66
2024/01/18 08:36:42;;;;;;;27.95;11.18;;;;;;;0.04;92.54;99101.91;5080873;28;20044;-68
2024/01/18 08:41:32;;;;;;;25.05;11.20;;;;;;;0.17;91.78;99106.06;5121086;27;20450;-69
2024/01/18 08:43:58;;;;;;;25.17;11.37;;;;;;;0.20;91.96;99114.91;5106529;27;20028;-67
2024/01/18 08:46:23;;;;;;;26.13;11.83;;;;;;;0.23;91.60;99115.09;5118540;27;20692;-69
2024/01/18 08:48:49;;;;;;;25.50;11.30;;;;;;;0.28;91.39;99107.53;5112741;27;20063;-67
2024/01/18 08:51:14;;;;;;;27.33;11.90;;;;;;;0.32;91.12;99113.00;5120710;27;20114;-66
2024/01/18 08:53:43;;;;;;;21.35;11.20;;;;;;;0.41;91.47;99112.59;5112706;27;20035;-68
2024/01/18 08:56:08;;;;;;;25.73;10.43;;;;;;;0.49;90.88;99113.91;5121130;27;20031;-66
2024/01/18 08:58:35;;;;;;;24.98;11.50;;;;;;;0.54;90.57;99107.25;5120938;27;20058;-67
2024/01/18 09:01:00;;;;;;;23.00;10.90;;;;;;;0.56;90.87;99110.81;5121259;27;20055;-65
2024/01/18 09:03:26;;;;;;;27.98;11.35;;;;;;;0.61;90.28;99114.56;5121061;27;20065;-67
2024/01/18 09:05:51;;;;;;;23.50;11.80;;;;;;;0.73;90.42;99119.53;5121465;27;20039;-66
2024/01/18 09:08:16;;;;;;;28.47;10.67;;;;;;;0.83;89.64;99116.59;5120896;27;20027;-69
2024/01/18 09:10:42;;;;;;;25.27;10.40;;;;;;;0.90;89.40;99128.19;5120536;27;20575;-66
2024/01/18 09:13:07;;;;;;;30.92;12.98;;;;;;;0.98;88.95;99134.72;5120648;27;20043;-67
2024/01/18 09:15:34;;;;;;;28.80;11.93;;;;;;;1.03;89.03;99130.66;5109009;27;20797;-68
2024/01/18 09:18:00;;;;;;;25.67;10.88;;;;;;;1.08;88.68;99130.06;5108519;27;20042;-66
2024/01/18 09:20:26;;;;;;;27.07;10.63;;;;;;;1.12;88.15;99132.00;5116628;27;20040;-68
2024/01/18 09:22:51;;;;;;;31.33;11.48;;;;;;;1.12;88.82;99150.22;5119949;27;20039;-67
2024/01/18 09:25:17;;;;;;;26.73;10.97;;;;;;;1.15;88.26;99146.88;5119984;27;20901;-68
2024/01/18 09:27:43;;;;;;;29.93;12.23;;;;;;;1.19;88.03;99157.50;5120638;27;20556;-67
2024/01/18 09:30:09;;;;;;;29.90;12.75;;;;;;;1.16;87.45;99154.75;5120216;27;20027;-66
2024/01/18 09:32:34;;;;;;;24.40;10.60;;;;;;;1.18;87.60;99157.44;5120365;27;20368;-66
2024/01/18 09:35:00;;;;;;;26.33;10.07;;;;;;;1.16;87.25;99170.34;5120081;27;20038;-67
2024/01/18 09:37:27;;;;;;;26.98;11.02;;;;;;;1.12;86.62;99176.22;5119963;27;20122;-70
2024/01/18 09:39:53;;;;;;;25.03;11.20;;;;;;;1.05;86.54;99171.50;5119452;27;20031;-69
2024/01/18 09:42:18;;;;;;;26.17;10.52;;;;;;;1.03;87.29;99167.94;5120088;27;20046;-65
2024/01/18 09:44:48;;;;;;;29.33;11.60;;;;;;;1.03;87.17;99174.84;5120139;28;20050;-66
2024/01/18 09:47:15;;;;;;;28.10;12.13;;;;;;;1.04;87.13;99185.28;5119835;27;20041;-68
2024/01/18 09:49:43;;;;;;;25.10;10.95;;;;;;;1.11;87.04;99194.31;5115903;27;20110;-65
2024/01/18 09:52:09;;;;;;;24.05;10.57;;;;;;;1.09;86.78;99194.22;5098542;27;20040;-66
2024/01/18 09:54:35;;;;;;;24.70;10.07;;;;;;;1.02;86.19;99192.13;5094115;28;20146;-66
2024/01/18 09:57:01;;;;;;;28.65;10.88;;;;;;;1.05;87.02;99207.88;5100563;28;20123;-66
2024/01/18 09:59:28;;;;;;;25.23;10.70;;;;;;;1.09;86.64;99196.81;5105740;28;20099;-66
2024/01/18 10:01:55;;;;;;;22.98;10.05;;;;;;;1.12;85.94;99210.00;5097698;28;20047;-67
2024/01/18 10:04:20;;;;;;;24.07;9.87;;;;;;;1.13;86.49;99205.72;5097537;28;20039;-66
2024/01/18 10:06:46;;;;;;;34.30;12.18;;;;;;;1.15;85.98;99211.84;5101153;28;20034;-67
2024/01/18 10:09:15;;;;;;;27.20;11.63;;;;;;;1.15;86.38;99214.47;5101370;28;20514;-66
2024/01/18 10:11:44;;;;;;;23.35;10.35;;;;;;;1.16;85.49;99211.94;5106404;28;20027;-68
2024/01/18 10:14:09;;;;;;;27.70;11.80;;;;;;;1.20;86.14;99203.50;5097690;28;20451;-67
2024/01/18 10:16:36;;;;;;;24.63;10.13;;;;;;;1.23;85.60;99206.25;5102208;28;20070;-68
2024/01/18 10:19:14;;;;;;;25.23;10.68;;;;;;;1.22;85.87;99204.47;5100660;28;20039;-66
2024/01/18 10:21:41;;;;;;;28.90;11.38;;;;;;;1.22;85.48;99196.69;5105932;28;20110;-65
2024/01/18 10:24:11;;;;;;;24.03;10.77;;;;;;;1.24;85.94;99200.22;5105657;28;20118;-66
2024/01/18 10:26:36;;;;;;;31.38;11.68;;;;;;;1.25;85.43;99204.63;5097006;28;20039;-66
2024/01/18 10:29:02;;;;;;;31.53;11.50;;;;;;;1.29;85.34;99208.28;5097989;28;20020;-66
2024/01/18 10:31:28;;;;;;;22.85;10.98;;;;;;;1.23;85.92;99213.19;5087648;28;20123;-66
2024/01/18 10:33:54;;;;;;;25.48;11.77;;;;;;;1.17;85.65;99225.84;5101392;28;20031;-67
2024/01/18 10:36:20;;;;;;;24.80;11.23;;;;;;;1.18;85.82;99220.75;5103687;28;20051;-69
2024/01/18 10:38:45;;;;;;;23.03;11.03;;;;;;;1.19;85.74;99230.31;5101812;28;20119;-67
2024/01/18 10:41:11;;;;;;;26.47;12.73;;;;;;;1.23;85.83;99224.44;5102017;28;20293;-67
2024/01/18 10:43:37;;;;;;;22.87;10.80;;;;;;;1.24;85.76;99226.25;5097571;28;20124;-67
2024/01/18 10:46:04;;;;;;;27.25;10.88;;;;;;;1.29;85.97;99234.28;5106017;28;20666;-67
2024/01/18 10:48:30;;;;;;;25.23;11.35;;;;;;;1.33;85.72;99243.16;5105658;28;20055;-66
2024/01/18 10:50:57;;;;;;;24.88;11.48;;;;;;;1.37;85.56;99239.91;5105717;28;20471;-69
2024/01/18 10:53:33;;;;;;;25.10;11.37;;;;;;;1.40;85.20;99246.16;5097175;28;20036;-69
2024/01/18 10:55:59;;;;;;;28.30;11.68;;;;;;;1.40;85.37;99240.94;5105469;28;20038;-66
2024/01/18 10:58:25;;;;;;;27.95;12.02;;;;;;;1.43;84.80;99245.44;5105227;28;20036;-69
2024/01/18 11:00:51;;;;;;;28.60;11.60;;;;;;;1.44;84.88;99240.28;5104756;28;20043;-68
2024/01/18 11:03:17;;;;;;;26.80;11.35;;;;;;;1.49;84.87;99245.72;5104316;28;20069;-68
2024/01/18 11:05:45;;;;;;;25.67;12.63;;;;;;;1.45;84.67;99251.59;5100908;28;20036;-66
2024/01/18 11:08:12;;;;;;;26.23;11.50;;;;;;;1.47;84.69;99249.97;5101789;28;20036;-65
2024/01/18 11:10:38;;;;;;;26.17;10.15;;;;;;;1.53;84.74;99245.09;5096197;28;20044;-67
2024/01/18 11:13:04;;;;;;;30.05;12.65;;;;;;;1.59;84.13;99251.50;5098190;28;20044;-66
2024/01/18 11:15:30;;;;;;;22.98;10.68;;;;;;;1.63;84.26;99262.94;5103203;28;20074;-63
2024/01/18 11:17:57;;;;;;;23.33;9.77;;;;;;;1.67;83.38;99259.72;5087002;28;20109;-64
2024/01/18 11:20:23;;;;;;;25.20;10.82;;;;;;;1.73;83.34;99255.69;5096186;28;20327;-65
2024/01/18 11:22:49;;;;;;;27.67;12.07;;;;;;;1.80;82.72;99261.22;5104865;28;20821;-66
2024/01/18 11:25:26;;;;;;;29.52;11.02;;;;;;;1.85;83.43;99265.88;5097304;28;20511;-66
2024/01/18 11:27:52;;;;;;;26.73;11.65;;;;;;;1.92;83.10;99260.16;5100661;28;20035;-67
2024/01/18 11:30:35;;;;;;;29.25;12.52;;;;;;;1.93;82.82;99264.53;5098405;28;20070;-67
2024/01/18 11:33:01;;;;;;;24.08;11.70;;;;;;;1.92;82.83;99267.97;5106006;28;20040;-64
2024/01/18 11:35:27;;;;;;;30.80;11.43;;;;;;;1.97;82.76;99270.81;5105470;28;20633;-65
2024/01/18 11:38:12;;;;;;;27.70;11.35;;;;;;;2.00;82.92;99261.44;5087902;28;20116;-64